createdAt,value
2018-05-25T00:00:01.856Z,29.37
2018-05-25T00:02:29.500Z,30.67
2018-05-25T00:14:05.356Z,30.80
2018-05-25T00:16:32.919Z,30.43
2018-05-25T00:19:00.459Z,29.70
2018-05-25T00:30:36.263Z,28.50
2018-05-25T00:33:03.931Z,28.13
2018-05-25T00:35:31.616Z,27.17
2018-05-25T00:37:59.176Z,27.90
2018-05-25T00:49:35.011Z,28.07
2018-05-25T00:52:02.524Z,28.17
2018-05-25T00:54:30.387Z,27.67
2018-05-25T01:06:06.538Z,27.70
2018-05-25T01:08:34.151Z,28.83
2018-05-25T01:11:01.785Z,28.27
2018-05-25T01:22:37.357Z,29.50
2018-05-25T01:25:04.913Z,28.93
2018-05-25T01:27:32.487Z,32.23
2018-05-25T01:39:06.461Z,37.37
2018-05-25T01:41:34.077Z,39.27
2018-05-25T01:44:01.676Z,37.77
2018-05-25T01:46:29.237Z,41.07
2018-05-25T01:57:19.207Z,40.30
2018-05-25T01:59:46.732Z,41.00
2018-05-25T02:02:14.279Z,42.13
2018-05-25T02:14:04.851Z,42.63
2018-05-25T02:16:32.463Z,40.20
2018-05-25T02:19:00.064Z,41.30
2018-05-25T02:21:27.809Z,43.50
2018-05-25T02:32:00.620Z,41.10
2018-05-25T02:34:28.220Z,43.70
2018-05-25T02:36:55.863Z,42.70
2018-05-25T02:49:58.964Z,43.00
2018-05-25T02:52:26.520Z,42.93
2018-05-25T02:54:54.226Z,43.07
2018-05-25T03:00:03.333Z,41.80
2018-05-25T03:07:42.148Z,42.23
2018-05-25T03:10:09.776Z,43.63
2018-05-25T03:12:37.404Z,42.67
2018-05-25T03:25:28.860Z,40.53
2018-05-25T03:27:56.488Z,41.73
2018-05-25T03:30:24.091Z,41.23
2018-05-25T03:32:57.346Z,41.80
2018-05-25T03:35:32.025Z,39.30
2018-05-25T03:38:07.378Z,40.60
2018-05-25T03:40:34.931Z,40.33
2018-05-25T03:43:02.470Z,39.70
2018-05-25T03:45:30.035Z,38.30
2018-05-25T03:47:57.651Z,38.07
2018-05-25T03:50:27.352Z,38.00
2018-05-25T03:53:04.029Z,38.20
2018-05-25T03:55:35.952Z,39.40
2018-05-25T03:58:03.506Z,36.80
2018-05-25T04:00:42.888Z,39.97
2018-05-25T04:03:10.452Z,39.07
2018-05-25T04:05:38.768Z,39.90
2018-05-25T04:13:36.847Z,38.80
2018-05-25T04:16:04.415Z,37.33
2018-05-25T04:18:32.011Z,37.90
2018-05-25T04:20:59.587Z,39.43
2018-05-25T04:26:47.378Z,40.00
2018-05-25T04:29:16.289Z,39.43
2018-05-25T04:34:18.095Z,38.90
2018-05-25T04:36:45.655Z,38.00
2018-05-25T04:39:13.639Z,38.50
2018-05-25T04:41:44.117Z,39.63
2018-05-25T04:44:15.984Z,38.53
2018-05-25T04:49:40.259Z,39.10
2018-05-25T04:52:07.783Z,39.37
2018-05-25T04:54:35.327Z,36.77
2018-05-25T04:57:03.079Z,37.70
2018-05-25T05:07:34.052Z,37.50
2018-05-25T05:10:01.652Z,39.03
2018-05-25T05:12:29.248Z,37.37
2018-05-25T05:14:56.997Z,38.53
2018-05-25T05:17:28.405Z,37.17
2018-05-25T05:19:57.416Z,37.37
2018-05-25T05:25:10.168Z,37.43
2018-05-25T05:27:37.761Z,36.83
2018-05-25T05:30:05.325Z,38.30
2018-05-25T05:32:39.242Z,37.73
2018-05-25T05:35:15.130Z,37.83
2018-05-25T05:37:47.762Z,37.33
2018-05-25T05:42:51.079Z,36.37
2018-05-25T05:45:18.625Z,36.20
2018-05-25T05:47:46.221Z,37.77
2018-05-25T05:50:15.027Z,36.00
2018-05-25T05:52:45.250Z,37.37
2018-05-25T05:57:53.130Z,37.40
2018-05-25T06:00:20.753Z,37.50
2018-05-25T06:02:48.304Z,36.77
2018-05-25T06:05:15.948Z,37.47
2018-05-25T06:07:45.213Z,36.03
2018-05-25T06:10:12.887Z,36.00
2018-05-25T06:18:05.947Z,36.93
2018-05-25T06:20:33.610Z,34.93
2018-05-25T06:23:01.344Z,37.63
2018-05-25T06:28:07.800Z,37.40
2018-05-25T06:30:40.252Z,35.40
2018-05-25T06:33:07.809Z,36.97
2018-05-25T06:35:35.339Z,37.20
2018-05-25T06:38:02.906Z,35.63
2018-05-25T06:40:30.471Z,36.87
2018-05-25T06:42:58.787Z,36.97
2018-05-25T06:45:27.411Z,36.60
2018-05-25T06:47:57.455Z,34.30
2018-05-25T06:50:27.925Z,34.97
2018-05-25T06:52:55.550Z,34.73
2018-05-25T06:55:23.083Z,35.70
2018-05-25T06:57:50.674Z,35.23
2018-05-25T07:00:18.939Z,35.33
2018-05-25T07:02:47.546Z,34.73
2018-05-25T07:05:15.440Z,33.70
2018-05-25T07:07:42.973Z,36.63
2018-05-25T07:10:10.491Z,35.80
2018-05-25T07:12:38.030Z,33.80
2018-05-25T07:15:05.623Z,34.53
2018-05-25T07:17:33.312Z,35.17
2018-05-25T07:20:00.979Z,34.30
2018-05-25T07:22:28.796Z,36.20
2018-05-25T07:24:56.340Z,34.07
2018-05-25T07:27:23.889Z,35.77
2018-05-25T07:29:51.448Z,35.13
2018-05-25T07:32:19.125Z,35.80
2018-05-25T07:34:49.288Z,34.20
2018-05-25T07:37:16.980Z,35.97
2018-05-25T07:39:45.082Z,36.00
2018-05-25T07:42:13.898Z,34.57
2018-05-25T07:44:42.716Z,35.60
2018-05-25T07:47:11.028Z,35.13
2018-05-25T07:49:38.715Z,34.97
2018-05-25T07:52:06.341Z,35.70
2018-05-25T07:54:34.003Z,36.17
2018-05-25T07:57:01.717Z,32.87
2018-05-25T07:59:29.321Z,33.60
2018-05-25T08:01:56.914Z,33.90
2018-05-25T08:04:24.450Z,35.80
2018-05-25T08:06:52.271Z,34.77
2018-05-25T08:09:19.932Z,34.33
2018-05-25T08:11:47.666Z,35.23
2018-05-25T08:14:16.086Z,34.77
2018-05-25T08:16:43.861Z,35.40
2018-05-25T08:19:11.419Z,34.40
2018-05-25T08:21:39.035Z,34.97
2018-05-25T08:24:06.622Z,35.70
2018-05-25T08:26:34.239Z,35.47
2018-05-25T08:29:02.127Z,35.10
2018-05-25T08:31:29.865Z,36.00
2018-05-25T08:33:57.519Z,35.13
2018-05-25T08:36:25.100Z,36.93
2018-05-25T08:38:52.635Z,34.33
2018-05-25T08:41:20.159Z,35.63
2018-05-25T08:43:48.543Z,35.07
2018-05-25T08:46:16.775Z,33.60
2018-05-25T08:48:44.489Z,33.17
2018-05-25T08:51:12.253Z,34.73
2018-05-25T08:53:39.808Z,35.03
2018-05-25T08:56:07.314Z,34.80
2018-05-25T08:58:34.926Z,34.60
2018-05-25T09:01:04.065Z,33.97
2018-05-25T09:03:32.284Z,33.17
2018-05-25T09:06:00.115Z,34.10
2018-05-25T09:08:28.934Z,33.77
2018-05-25T09:10:56.493Z,33.33
2018-05-25T09:13:23.995Z,32.57
2018-05-25T09:15:51.627Z,33.20
2018-05-25T09:18:20.152Z,31.13
2018-05-25T09:20:48.417Z,32.23
2018-05-25T09:23:27.414Z,30.60
2018-05-25T09:25:55.821Z,28.33
2018-05-25T09:28:23.417Z,31.47
2018-05-25T09:30:51.018Z,30.97
2018-05-25T09:33:18.579Z,30.77
2018-05-25T09:35:46.234Z,30.13
2018-05-25T09:38:13.929Z,30.00
2018-05-25T09:40:42.848Z,23.67
2018-05-25T09:43:11.234Z,17.07
2018-05-25T09:45:39.020Z,15.20
2018-05-25T09:48:06.574Z,15.97
2018-05-25T09:50:36.560Z,17.53
2018-05-25T09:53:04.311Z,17.97
2018-05-25T09:55:32.179Z,17.13
2018-05-25T09:58:01.166Z,16.30
2018-05-25T10:00:29.196Z,16.00
2018-05-25T10:02:56.787Z,15.70
2018-05-25T10:05:24.282Z,13.53
2018-05-25T10:07:51.770Z,12.90
2018-05-25T10:10:20.570Z,13.67
2018-05-25T10:12:51.408Z,13.83
2018-05-25T10:15:20.299Z,12.83
2018-05-25T10:17:54.103Z,12.80
2018-05-25T10:20:22.803Z,12.97
2018-05-25T10:22:50.891Z,12.70
2018-05-25T10:25:18.546Z,11.77
2018-05-25T10:27:48.329Z,11.00
2018-05-25T10:30:17.013Z,11.53
2018-05-25T10:32:47.371Z,11.13
2018-05-25T10:35:14.949Z,12.50
2018-05-25T10:37:48.335Z,11.90
2018-05-25T10:40:19.083Z,11.30
2018-05-25T10:42:46.798Z,11.67
2018-05-25T10:54:23.126Z,12.70
2018-05-25T10:56:50.699Z,13.27
2018-05-25T10:59:18.386Z,13.63
2018-05-25T11:10:54.060Z,13.60
2018-05-25T11:13:21.700Z,14.10
2018-05-25T11:15:49.337Z,14.20
2018-05-25T11:27:25.628Z,14.30
2018-05-25T11:29:53.336Z,14.40
2018-05-25T11:32:20.931Z,15.47
2018-05-25T11:43:42.934Z,18.30
2018-05-25T11:46:10.492Z,18.53
2018-05-25T11:48:38.767Z,16.13
2018-05-25T11:51:06.435Z,17.70
2018-05-25T12:02:46.287Z,14.50
2018-05-25T12:05:13.971Z,16.37
2018-05-25T12:07:41.615Z,16.63
2018-05-25T12:19:17.558Z,16.57
2018-05-25T12:21:48.740Z,16.70
2018-05-25T12:24:16.404Z,15.77
2018-05-25T12:35:51.775Z,16.27
2018-05-25T12:38:19.316Z,16.00
2018-05-25T12:40:46.883Z,16.47
2018-05-25T12:43:14.509Z,15.73
2018-05-25T12:54:51.207Z,15.40
2018-05-25T12:57:18.771Z,14.73
2018-05-25T12:59:46.627Z,15.10
2018-05-25T13:11:22.415Z,13.50
2018-05-25T13:13:50.111Z,12.97
2018-05-25T13:16:17.695Z,12.97
2018-05-25T13:24:52.585Z,12.87
2018-05-25T13:27:21.131Z,12.10
2018-05-25T13:29:49.476Z,12.83
2018-05-25T13:32:17.103Z,14.70
2018-05-25T13:34:45.032Z,13.10
2018-05-25T13:46:23.634Z,13.63
2018-05-25T13:48:51.324Z,14.07
2018-05-25T13:51:19.287Z,15.17
2018-05-25T14:02:56.216Z,14.03
2018-05-25T14:05:27.842Z,13.50
2018-05-25T14:08:06.114Z,15.13
2018-05-25T14:19:42.182Z,13.13
2018-05-25T14:22:10.065Z,13.50
2018-05-25T14:24:37.819Z,13.30
2018-05-25T14:27:05.469Z,13.60
2018-05-25T14:34:59.753Z,15.77
2018-05-25T14:37:27.489Z,14.70
2018-05-25T14:39:55.135Z,15.23
2018-05-25T14:42:22.762Z,14.77
2018-05-25T14:44:51.392Z,14.37
2018-05-25T14:47:24.599Z,13.60
2018-05-25T14:49:53.519Z,13.03
2018-05-25T14:52:21.074Z,14.03
2018-05-25T14:54:49.834Z,14.93
2018-05-25T14:57:18.939Z,13.87
2018-05-25T14:59:47.731Z,13.23
2018-05-25T15:02:19.856Z,13.10
2018-05-25T15:04:49.213Z,11.87
2018-05-25T15:09:52.168Z,13.60
2018-05-25T15:12:20.796Z,12.57
2018-05-25T15:14:48.313Z,11.30
2018-05-25T15:17:16.845Z,12.47
2018-05-25T15:19:47.388Z,13.13
2018-05-25T15:22:21.739Z,11.50
2018-05-25T15:27:23.047Z,11.47
2018-05-25T15:29:50.609Z,12.03
2018-05-25T15:32:19.056Z,11.37
2018-05-25T15:34:55.567Z,10.93
2018-05-25T15:37:31.957Z,10.83
2018-05-25T15:45:11.367Z,10.63
2018-05-25T15:47:39.607Z,11.10
2018-05-25T15:50:07.255Z,11.47
2018-05-25T15:52:35.539Z,12.23
2018-05-25T15:55:13.245Z,11.80
2018-05-25T16:00:20.315Z,12.17
2018-05-25T16:02:47.862Z,12.97
2018-05-25T16:05:15.992Z,15.13
2018-05-25T16:07:44.008Z,16.53
2018-05-25T16:10:11.705Z,16.07
2018-05-25T16:12:43.890Z,15.37
2018-05-25T16:15:13.683Z,17.67
2018-05-25T16:17:51.935Z,16.83
2018-05-25T16:20:19.480Z,16.20
2018-05-25T16:22:47.041Z,15.57
2018-05-25T16:25:14.571Z,15.23
2018-05-25T16:27:43.736Z,15.93
2018-05-25T16:30:18.824Z,15.77
2018-05-25T16:32:52.865Z,16.57
2018-05-25T16:35:23.679Z,15.53
2018-05-25T16:37:51.902Z,17.50
2018-05-25T16:40:19.451Z,17.03
2018-05-25T16:42:48.106Z,17.37
2018-05-25T16:45:17.740Z,16.23
2018-05-25T16:47:52.893Z,16.77
2018-05-25T16:50:24.314Z,17.37
2018-05-25T16:52:53.653Z,17.57
2018-05-25T16:55:21.176Z,16.77
2018-05-25T16:57:48.740Z,17.77
2018-05-25T17:00:16.430Z,17.93
2018-05-25T17:05:32.056Z,19.80
2018-05-25T17:10:36.269Z,20.97
2018-05-25T17:13:03.856Z,20.67
2018-05-25T17:15:31.433Z,23.03
2018-05-25T17:17:59.135Z,21.73
2018-05-25T17:20:37.410Z,20.83
2018-05-25T17:29:40.847Z,20.80
2018-05-25T17:32:08.435Z,22.67
2018-05-25T17:34:36.047Z,20.30
2018-05-25T17:48:14.022Z,22.30
2018-05-25T17:50:41.791Z,22.43
2018-05-25T17:53:10.426Z,21.73
2018-05-25T17:58:25.555Z,22.13
2018-05-25T18:00:53.435Z,22.93
2018-05-25T18:03:24.332Z,22.77
2018-05-25T18:05:51.983Z,21.30
2018-05-25T18:08:19.542Z,21.27
2018-05-25T18:10:47.267Z,20.33
2018-05-25T18:13:16.234Z,20.67
2018-05-25T18:15:45.277Z,21.70
2018-05-25T18:18:15.964Z,20.70
2018-05-25T18:20:44.644Z,22.10
2018-05-25T18:23:12.186Z,23.13
2018-05-25T18:25:39.731Z,23.40
2018-05-25T18:28:07.319Z,24.23
2018-05-25T18:30:37.712Z,22.83
2018-05-25T18:33:05.524Z,22.63
2018-05-25T18:35:39.681Z,24.00
2018-05-25T18:38:09.854Z,23.67
2018-05-25T18:40:38.645Z,24.03
2018-05-25T18:43:06.400Z,23.80
2018-05-25T18:45:34.030Z,24.20
2018-05-25T18:48:04.017Z,24.17
2018-05-25T18:50:36.445Z,24.07
2018-05-25T18:53:08.916Z,23.10
2018-05-25T18:55:36.553Z,22.33
2018-05-25T18:58:04.130Z,22.73
2018-05-25T19:00:31.797Z,21.93
2018-05-25T19:02:59.896Z,23.37
2018-05-25T19:05:28.724Z,22.23
2018-05-25T19:07:59.747Z,23.40
2018-05-25T19:10:31.053Z,22.70
2018-05-25T19:12:58.587Z,23.13
2018-05-25T19:15:26.167Z,22.33
2018-05-25T19:17:53.807Z,21.47
2018-05-25T19:20:21.590Z,21.37
2018-05-25T19:22:49.620Z,20.90
2018-05-25T19:25:19.924Z,20.83
2018-05-25T19:27:49.479Z,21.77
2018-05-25T19:30:17.850Z,20.70
2018-05-25T19:32:52.327Z,20.80
2018-05-25T19:35:19.991Z,22.17
2018-05-25T19:37:47.620Z,22.10
2018-05-25T19:42:54.016Z,20.83
2018-05-25T19:45:27.901Z,21.63
2018-05-25T19:47:56.596Z,21.00
2018-05-25T19:50:24.151Z,20.53
2018-05-25T19:52:51.709Z,20.23
2018-05-25T19:55:19.274Z,20.80
2018-05-25T19:57:48.719Z,20.80
2018-05-25T20:00:17.784Z,20.67
2018-05-25T20:02:45.544Z,20.37
2018-05-25T20:08:24.567Z,20.77
2018-05-25T20:10:52.090Z,20.57
2018-05-25T20:13:19.708Z,20.47
2018-05-25T20:15:48.643Z,20.60
2018-05-25T20:18:17.466Z,20.43
2018-05-25T20:20:49.765Z,21.40
2018-05-25T20:23:17.389Z,21.63
2018-05-25T20:25:44.937Z,21.47
2018-05-25T20:28:12.531Z,21.70
2018-05-25T20:30:40.092Z,21.80
2018-05-25T20:33:09.105Z,21.73
2018-05-25T20:40:47.661Z,21.10
2018-05-25T20:43:15.215Z,21.90
2018-05-25T20:45:42.767Z,21.13
2018-05-25T20:48:10.410Z,21.07
2018-05-25T20:50:39.698Z,20.83
2018-05-25T20:53:08.565Z,20.03
2018-05-25T20:55:39.971Z,21.77
2018-05-25T20:58:07.498Z,23.03
2018-05-25T21:00:35.078Z,21.50
2018-05-25T21:03:02.664Z,22.33
2018-05-25T21:05:30.299Z,21.97
2018-05-25T21:08:00.816Z,22.30
2018-05-25T21:13:05.901Z,24.10
2018-05-25T21:15:34.955Z,22.73
2018-05-25T21:18:02.569Z,22.33
2018-05-25T21:20:31.216Z,22.20
2018-05-25T21:25:40.790Z,22.77
2018-05-25T21:28:09.476Z,23.57
2018-05-25T21:30:37.825Z,23.47
2018-05-25T21:33:05.469Z,23.10
2018-05-25T21:35:33.011Z,22.10
2018-05-25T21:38:00.876Z,23.37
2018-05-25T21:43:04.618Z,25.07
2018-05-25T21:45:33.205Z,22.90
2018-05-25T21:48:03.793Z,22.87
2018-05-25T21:50:31.318Z,21.67
2018-05-25T21:52:58.891Z,22.83
2018-05-25T21:55:26.444Z,23.77
2018-05-25T21:57:56.775Z,25.57
2018-05-25T22:03:20.373Z,24.70
2018-05-25T22:05:48.831Z,23.30
2018-05-25T22:08:16.400Z,24.40
2018-05-25T22:10:44.040Z,23.40
2018-05-25T22:13:11.888Z,25.50
2018-05-25T22:15:40.567Z,24.27
2018-05-25T22:18:09.696Z,25.97
2018-05-25T22:20:37.401Z,26.30
2018-05-25T22:23:08.581Z,27.47
2018-05-25T22:25:36.255Z,29.03
2018-05-25T22:28:03.850Z,27.40
2018-05-25T22:30:31.480Z,26.80
2018-05-25T22:33:00.143Z,26.37
2018-05-25T22:35:28.803Z,24.93
2018-05-25T22:37:57.793Z,26.30
2018-05-25T22:40:32.381Z,26.87
2018-05-25T22:43:11.714Z,27.73
2018-05-25T22:45:51.026Z,25.13
2018-05-25T22:48:30.717Z,26.83
2018-05-25T22:51:13.502Z,25.23
2018-05-25T22:53:48.340Z,25.40
2018-05-25T22:56:16.814Z,23.97
2018-05-25T22:58:44.439Z,25.20
2018-05-25T23:01:12.008Z,24.57
2018-05-25T23:03:39.572Z,25.97
2018-05-25T23:06:07.263Z,25.80
2018-05-25T23:11:09.920Z,25.43
2018-05-25T23:13:37.548Z,25.60
2018-05-25T23:16:05.177Z,25.60
2018-05-25T23:18:32.758Z,24.87
2018-05-25T23:21:00.393Z,26.03
2018-05-25T23:23:28.092Z,24.80
2018-05-25T23:25:57.567Z,24.47
2018-05-25T23:28:25.204Z,26.33
2018-05-25T23:30:54.468Z,25.10
2018-05-25T23:33:22.059Z,25.23
2018-05-25T23:35:49.629Z,24.13
2018-05-25T23:38:17.163Z,24.37
2018-05-25T23:40:44.755Z,24.03
2018-05-25T23:43:14.488Z,23.83
2018-05-25T23:45:42.249Z,23.50
2018-05-25T23:48:09.902Z,23.50
2018-05-25T23:50:37.476Z,21.93
2018-05-25T23:53:05.027Z,20.20
2018-05-25T23:55:32.602Z,17.97
2018-05-25T23:58:00.158Z,18.00
